createdAt,value
2022-08-02T00:01:23.455Z,0.20
2022-08-02T00:03:51.801Z,0.32
2022-08-02T00:06:21.125Z,0.25
2022-08-02T00:08:49.425Z,0.30
2022-08-02T00:11:19.144Z,0.30
2022-08-02T00:13:47.479Z,0.20
2022-08-02T00:16:16.695Z,0.13
2022-08-02T00:18:45.479Z,0.40
2022-08-02T00:21:13.783Z,0.40
2022-08-02T00:24:03.271Z,0.30
2022-08-02T00:26:32.588Z,0.38
2022-08-02T00:29:00.931Z,0.20
2022-08-02T00:31:29.224Z,0.20
2022-08-02T00:34:27.545Z,0.30
2022-08-02T00:36:45.848Z,0.30
2022-08-02T00:39:34.677Z,0.38
2022-08-02T00:42:03.874Z,0.22
2022-08-02T00:44:32.241Z,0.30
2022-08-02T00:47:00.558Z,0.30
2022-08-02T00:49:29.069Z,0.20
2022-08-02T00:51:57.437Z,0.28
2022-08-02T00:54:25.762Z,0.30
2022-08-02T00:56:54.088Z,0.30
2022-08-02T00:59:23.734Z,0.20
2022-08-02T01:01:56.366Z,0.30
2022-08-02T01:04:30.481Z,0.20
2022-08-02T01:07:00.380Z,0.20
2022-08-02T01:09:28.704Z,0.32
2022-08-02T01:11:57.071Z,0.30
2022-08-02T01:14:32.128Z,0.30
2022-08-02T01:17:03.775Z,0.30
2022-08-02T01:19:38.715Z,0.30
2022-08-02T01:22:58.123Z,0.20
2022-08-02T01:25:27.596Z,0.30
2022-08-02T01:28:18.517Z,0.30
2022-08-02T01:30:46.822Z,0.20
2022-08-02T01:33:17.197Z,0.30
2022-08-02T01:35:47.968Z,0.30
2022-08-02T01:38:22.967Z,0.30
2022-08-02T01:40:51.293Z,0.15
2022-08-02T01:43:21.086Z,0.20
2022-08-02T01:45:49.450Z,0.35
2022-08-02T01:48:17.782Z,0.20
2022-08-02T01:50:46.112Z,0.20
2022-08-02T01:53:14.411Z,0.30
2022-08-02T01:55:58.340Z,0.30
2022-08-02T01:58:30.822Z,0.20
2022-08-02T02:00:59.718Z,0.20
2022-08-02T02:03:28.723Z,0.30
2022-08-02T02:05:58.401Z,0.20
2022-08-02T02:08:28.732Z,0.20
2022-08-02T02:10:57.648Z,0.20
2022-08-02T02:13:47.247Z,0.25
2022-08-02T02:16:15.552Z,0.35
2022-08-02T02:18:44.496Z,0.35
2022-08-02T02:21:13.088Z,0.10
2022-08-02T02:23:41.535Z,0.20
2022-08-02T02:26:09.875Z,0.32
2022-08-02T02:28:38.964Z,0.20
2022-08-02T02:31:09.465Z,0.32
2022-08-02T02:33:41.334Z,0.20
2022-08-02T02:36:09.844Z,0.30
2022-08-02T02:38:38.147Z,0.10
2022-08-02T02:41:06.855Z,0.25
2022-08-02T02:43:35.492Z,0.20
2022-08-02T02:46:04.325Z,0.25
2022-08-02T02:48:34.087Z,0.20
2022-08-02T02:51:02.452Z,0.10
2022-08-02T02:53:30.765Z,0.20
2022-08-02T02:56:19.230Z,0.28
2022-08-02T02:58:48.339Z,0.30
2022-08-02T03:01:53.117Z,0.30
2022-08-02T03:04:18.768Z,0.20
2022-08-02T03:06:47.219Z,0.20
2022-08-02T03:09:15.541Z,0.20
2022-08-02T03:11:43.864Z,0.22
2022-08-02T03:14:12.772Z,0.20
2022-08-02T03:16:44.602Z,0.20
2022-08-02T03:19:12.907Z,0.20
2022-08-02T03:21:42.577Z,0.20
2022-08-02T03:24:10.962Z,0.20
2022-08-02T03:26:39.301Z,0.15
2022-08-02T03:29:10.197Z,0.10
2022-08-02T03:31:40.983Z,0.30
2022-08-02T03:34:09.328Z,0.30
2022-08-02T03:36:37.641Z,0.20
2022-08-02T03:39:07.377Z,0.30
2022-08-02T03:41:36.933Z,0.20
2022-08-02T03:44:05.973Z,0.30
2022-08-02T03:46:34.305Z,0.30
2022-08-02T03:49:02.682Z,0.30
2022-08-02T03:51:31.053Z,0.25
2022-08-02T03:53:59.406Z,0.20
2022-08-02T03:56:29.362Z,0.40
2022-08-02T03:59:07.780Z,0.20
2022-08-02T04:01:36.085Z,0.35
2022-08-02T04:04:04.590Z,0.10
2022-08-02T04:06:33.036Z,0.20
2022-08-02T04:09:01.338Z,0.30
2022-08-02T04:11:33.755Z,0.20
2022-08-02T04:14:03.072Z,0.17
2022-08-02T04:16:38.121Z,0.20
2022-08-02T04:19:06.817Z,0.20
2022-08-02T04:21:48.635Z,0.30
2022-08-02T04:24:24.714Z,0.20
2022-08-02T04:26:57.779Z,0.20
2022-08-02T04:29:31.820Z,0.35
2022-08-02T04:32:00.237Z,0.40
2022-08-02T04:34:28.570Z,0.30
2022-08-02T04:36:56.876Z,0.20
2022-08-02T04:39:25.190Z,0.30
2022-08-02T04:41:57.809Z,0.20
2022-08-02T04:44:26.385Z,0.30
2022-08-02T04:46:55.871Z,0.22
2022-08-02T04:49:24.229Z,0.20
2022-08-02T04:51:52.560Z,0.20
2022-08-02T04:54:20.941Z,0.20
2022-08-02T04:56:49.253Z,0.30
2022-08-02T04:59:18.941Z,0.15
2022-08-02T05:01:47.263Z,0.20
2022-08-02T05:04:16.202Z,0.30
2022-08-02T05:06:44.525Z,0.20
2022-08-02T05:09:12.838Z,0.28
2022-08-02T05:11:41.167Z,0.20
2022-08-02T05:14:09.520Z,0.20
2022-08-02T05:16:39.199Z,0.30
2022-08-02T05:19:07.986Z,0.28
2022-08-02T05:21:36.287Z,0.20
2022-08-02T05:24:04.939Z,0.40
2022-08-02T05:26:33.236Z,0.20
2022-08-02T05:29:01.537Z,0.30
2022-08-02T05:31:29.907Z,0.13
2022-08-02T05:33:59.581Z,0.30
2022-08-02T05:36:27.926Z,0.40
2022-08-02T05:38:59.752Z,0.35
2022-08-02T05:41:33.601Z,0.28
2022-08-02T05:44:01.900Z,0.40
2022-08-02T05:46:30.236Z,0.20
2022-08-02T05:48:59.994Z,0.30
2022-08-02T05:51:30.707Z,0.40
2022-08-02T05:54:03.928Z,0.32
2022-08-02T05:56:34.085Z,0.22
2022-08-02T05:59:04.264Z,0.22
2022-08-02T06:01:34.369Z,0.28
2022-08-02T06:04:06.268Z,0.20
2022-08-02T06:06:34.647Z,0.20
2022-08-02T06:09:04.340Z,0.20
2022-08-02T06:11:36.690Z,0.25
2022-08-02T06:14:06.287Z,0.30
2022-08-02T06:16:41.198Z,0.30
2022-08-02T06:19:13.067Z,0.20
2022-08-02T06:22:33.027Z,0.30
2022-08-02T06:24:30.430Z,0.20
2022-08-02T06:26:58.758Z,0.30
2022-08-02T06:29:27.053Z,0.30
2022-08-02T06:31:55.395Z,0.30
2022-08-02T06:34:25.087Z,0.30
2022-08-02T06:36:58.201Z,0.35
2022-08-02T06:39:30.044Z,0.45
2022-08-02T06:41:59.967Z,0.60
2022-08-02T06:44:47.746Z,0.40
2022-08-02T06:47:16.557Z,0.50
2022-08-02T06:49:52.486Z,0.60
2022-08-02T06:52:28.307Z,0.50
2022-08-02T06:54:58.198Z,0.50
2022-08-02T06:57:26.546Z,0.50
2022-08-02T06:59:54.894Z,0.68
2022-08-02T07:02:23.281Z,0.60
2022-08-02T07:04:52.944Z,0.68
2022-08-02T07:07:21.290Z,0.60
2022-08-02T07:09:56.388Z,0.68
2022-08-02T07:12:29.705Z,0.60
2022-08-02T07:14:58.298Z,0.60
2022-08-02T07:17:26.689Z,0.68
2022-08-02T07:19:56.448Z,0.80
2022-08-02T07:22:26.765Z,0.68
2022-08-02T07:24:55.207Z,0.57
2022-08-02T07:27:23.604Z,0.47
2022-08-02T07:29:51.941Z,0.80
2022-08-02T07:32:21.216Z,0.90
2022-08-02T07:34:52.711Z,0.77
2022-08-02T07:37:35.797Z,0.60
2022-08-02T07:40:14.712Z,0.80
2022-08-02T07:42:43.906Z,0.60
2022-08-02T07:45:12.483Z,0.75
2022-08-02T07:47:41.051Z,0.52
2022-08-02T07:50:10.184Z,0.57
2022-08-02T07:52:39.943Z,0.60
2022-08-02T07:55:08.766Z,0.75
2022-08-02T07:57:37.161Z,0.60
2022-08-02T08:00:06.374Z,0.75
2022-08-02T08:02:34.709Z,0.70
2022-08-02T08:05:03.154Z,0.70
2022-08-02T08:07:31.468Z,0.60
2022-08-02T08:10:01.235Z,0.98
2022-08-02T08:12:29.588Z,0.43
2022-08-02T08:14:57.888Z,0.60
2022-08-02T08:17:26.249Z,0.70
2022-08-02T08:19:54.545Z,0.80
2022-08-02T08:22:22.915Z,0.70
2022-08-02T08:24:51.280Z,0.70
2022-08-02T08:27:22.651Z,0.73
2022-08-02T08:29:51.106Z,0.80
2022-08-02T08:32:20.041Z,0.68
2022-08-02T08:34:48.634Z,0.73
2022-08-02T08:37:18.660Z,0.70
2022-08-02T08:39:58.427Z,0.75
2022-08-02T08:42:29.073Z,0.60
2022-08-02T08:44:57.995Z,0.75
2022-08-02T08:47:27.856Z,0.70
2022-08-02T08:50:04.276Z,0.52
2022-08-02T08:52:33.085Z,0.93
2022-08-02T08:55:01.431Z,0.90
2022-08-02T08:57:31.460Z,0.57
2022-08-02T08:59:59.813Z,0.70
2022-08-02T09:02:28.649Z,0.90
2022-08-02T09:04:57.035Z,0.90
2022-08-02T09:07:25.342Z,0.80
2022-08-02T09:09:53.674Z,0.82
2022-08-02T09:12:24.922Z,0.70
2022-08-02T09:14:54.846Z,0.70
2022-08-02T09:17:23.170Z,0.73
2022-08-02T09:19:58.296Z,0.70
2022-08-02T09:22:26.622Z,0.88
2022-08-02T09:24:55.407Z,0.70
2022-08-02T09:27:23.999Z,0.80
2022-08-02T09:30:11.664Z,0.93
2022-08-02T09:32:47.972Z,1.05
2022-08-02T09:36:06.384Z,0.90
2022-08-02T09:38:22.986Z,0.80
2022-08-02T09:40:54.406Z,0.80
2022-08-02T09:43:37.137Z,0.90
2022-08-02T09:46:16.789Z,0.65
2022-08-02T09:48:54.673Z,0.70
2022-08-02T09:51:24.528Z,0.70
2022-08-02T09:54:02.008Z,0.82
2022-08-02T09:56:44.254Z,0.80
2022-08-02T09:59:12.907Z,0.70
2022-08-02T10:01:50.606Z,0.80
2022-08-02T10:04:22.499Z,0.70
2022-08-02T10:06:51.272Z,0.90
2022-08-02T10:09:19.624Z,0.80
2022-08-02T10:11:47.938Z,0.80
2022-08-02T10:14:17.753Z,0.77
2022-08-02T10:16:47.442Z,0.70
2022-08-02T10:19:16.837Z,0.88
2022-08-02T10:21:47.004Z,0.70
2022-08-02T10:24:16.743Z,0.80
2022-08-02T10:26:46.124Z,1.00
2022-08-02T10:29:17.169Z,1.00
2022-08-02T10:31:50.298Z,0.80
2022-08-02T10:34:19.710Z,0.77
2022-08-02T10:36:47.995Z,0.68
2022-08-02T10:39:16.311Z,0.68
2022-08-02T10:41:45.916Z,0.90
2022-08-02T10:44:27.570Z,0.60
2022-08-02T10:47:21.362Z,0.95
2022-08-02T10:49:50.795Z,0.60
2022-08-02T10:52:19.501Z,0.68
2022-08-02T10:54:57.420Z,0.93
2022-08-02T10:57:26.741Z,0.75
2022-08-02T10:59:57.467Z,0.93
2022-08-02T11:02:40.687Z,0.70
2022-08-02T11:05:11.340Z,0.80
2022-08-02T11:07:40.882Z,0.70
2022-08-02T11:10:37.893Z,0.82
2022-08-02T11:13:11.516Z,0.60
2022-08-02T11:15:50.610Z,0.80
2022-08-02T11:18:20.501Z,0.80
2022-08-02T11:20:49.020Z,0.70
2022-08-02T11:23:44.604Z,0.73
2022-08-02T11:26:45.527Z,0.80
2022-08-02T11:29:15.882Z,0.50
2022-08-02T11:31:45.488Z,0.90
2022-08-02T11:34:36.526Z,0.55
2022-08-02T11:37:03.407Z,0.73
2022-08-02T11:39:31.768Z,0.80
2022-08-02T11:42:00.827Z,0.70
2022-08-02T11:44:29.782Z,0.70
2022-08-02T11:46:58.688Z,0.63
2022-08-02T11:49:29.161Z,0.60
2022-08-02T11:52:00.946Z,0.70
2022-08-02T11:54:30.676Z,0.90
2022-08-02T11:57:18.498Z,0.77
2022-08-02T11:59:48.322Z,0.70
2022-08-02T12:02:17.038Z,0.93
2022-08-02T12:04:58.221Z,0.95
2022-08-02T12:07:34.988Z,0.60
2022-08-02T12:10:06.822Z,0.90
2022-08-02T12:12:35.358Z,0.88
2022-08-02T12:15:03.664Z,0.70
2022-08-02T12:17:49.686Z,0.70
2022-08-02T12:20:20.106Z,0.63
2022-08-02T12:22:48.480Z,0.50
2022-08-02T12:25:33.623Z,0.50
2022-08-02T12:28:26.629Z,0.73
2022-08-02T12:30:56.187Z,0.77
2022-08-02T12:33:24.856Z,0.70
2022-08-02T12:35:54.578Z,1.00
2022-08-02T12:38:22.875Z,0.60
2022-08-02T12:40:51.226Z,0.60
2022-08-02T12:43:21.630Z,0.80
2022-08-02T12:45:50.982Z,0.50
2022-08-02T12:48:37.540Z,0.60
2022-08-02T12:51:23.550Z,0.60
2022-08-02T12:53:59.111Z,0.52
2022-08-02T12:56:30.473Z,0.50
2022-08-02T12:58:58.998Z,0.80
2022-08-02T13:01:28.411Z,0.50
2022-08-02T13:04:10.419Z,0.60
2022-08-02T13:06:44.949Z,0.50
2022-08-02T13:09:14.805Z,0.70
2022-08-02T13:11:43.967Z,0.60
2022-08-02T13:14:13.080Z,0.60
2022-08-02T13:16:41.506Z,0.60
2022-08-02T13:19:09.837Z,0.50
2022-08-02T13:21:40.799Z,0.80
2022-08-02T13:24:38.742Z,0.60
2022-08-02T13:27:09.297Z,0.60
2022-08-02T13:29:37.893Z,0.57
2022-08-02T13:32:06.435Z,0.57
2022-08-02T13:34:34.778Z,0.63
2022-08-02T13:37:03.247Z,0.63
2022-08-02T13:39:32.859Z,0.65
2022-08-02T13:42:01.154Z,0.60
2022-08-02T13:44:29.551Z,0.60
2022-08-02T13:46:57.991Z,0.70
2022-08-02T13:49:49.744Z,0.60
2022-08-02T13:52:15.079Z,0.50
2022-08-02T13:54:45.081Z,0.57
2022-08-02T13:57:13.421Z,0.75
2022-08-02T13:59:58.125Z,0.55
2022-08-02T14:02:28.171Z,0.55
2022-08-02T14:04:56.950Z,0.50
2022-08-02T14:07:25.315Z,0.70
2022-08-02T14:09:54.987Z,0.63
2022-08-02T14:12:23.284Z,0.52
2022-08-02T14:14:51.873Z,0.65
2022-08-02T14:17:20.181Z,0.65
2022-08-02T14:19:48.468Z,0.80
2022-08-02T14:22:16.778Z,0.70
2022-08-02T14:24:45.074Z,0.68
2022-08-02T14:27:15.698Z,0.60
2022-08-02T14:29:44.039Z,0.70
2022-08-02T14:32:12.600Z,0.57
2022-08-02T14:34:41.071Z,0.63
2022-08-02T14:37:09.389Z,0.50
2022-08-02T14:39:43.437Z,0.60
2022-08-02T14:42:27.495Z,0.73
2022-08-02T14:44:55.786Z,0.60
2022-08-02T14:47:24.170Z,0.45
2022-08-02T14:49:52.543Z,0.70
2022-08-02T14:52:21.196Z,0.88
2022-08-02T14:54:49.566Z,0.70
2022-08-02T14:57:17.902Z,0.73
2022-08-02T14:59:47.623Z,0.43
2022-08-02T15:02:16.323Z,0.60
2022-08-02T15:04:44.872Z,0.60
2022-08-02T15:07:14.316Z,0.60
2022-08-02T15:09:42.686Z,0.80
2022-08-02T15:12:11.806Z,0.80
2022-08-02T15:14:40.493Z,0.70
2022-08-02T15:17:10.243Z,0.55
2022-08-02T15:19:58.999Z,0.60
2022-08-02T15:22:27.196Z,0.68
2022-08-02T15:24:57.208Z,0.55
2022-08-02T15:27:25.528Z,0.70
2022-08-02T15:29:59.848Z,0.60
2022-08-02T15:32:29.561Z,0.70
2022-08-02T15:34:57.855Z,0.85
2022-08-02T15:37:26.175Z,0.60
2022-08-02T15:40:00.013Z,0.52
2022-08-02T15:42:30.202Z,0.70
2022-08-02T15:44:59.990Z,0.50
2022-08-02T15:47:29.675Z,0.68
2022-08-02T15:49:58.647Z,0.80
2022-08-02T15:52:27.576Z,0.60
2022-08-02T15:54:56.012Z,0.50
2022-08-02T15:57:24.540Z,0.63
2022-08-02T15:59:53.969Z,0.50
2022-08-02T16:02:22.442Z,0.85
2022-08-02T16:04:52.148Z,0.70
2022-08-02T16:07:20.611Z,0.60
2022-08-02T16:09:48.959Z,0.60
2022-08-02T16:12:17.445Z,0.60
2022-08-02T16:14:45.822Z,0.70
2022-08-02T16:17:14.273Z,0.45
2022-08-02T16:20:04.169Z,0.70
2022-08-02T16:22:32.514Z,0.70
2022-08-02T16:25:01.190Z,0.60
2022-08-02T16:27:29.539Z,0.63
2022-08-02T16:29:59.210Z,0.90
2022-08-02T16:32:27.523Z,0.47
2022-08-02T16:35:08.107Z,0.50
2022-08-02T16:37:51.605Z,0.70
2022-08-02T16:40:20.809Z,0.60
2022-08-02T16:42:50.577Z,0.50
2022-08-02T16:45:20.878Z,0.60
2022-08-02T16:47:56.227Z,0.60
2022-08-02T16:50:27.398Z,0.80
2022-08-02T16:52:58.894Z,0.63
2022-08-02T16:55:30.341Z,0.50
2022-08-02T16:58:00.410Z,0.50
2022-08-02T17:00:29.378Z,0.50
2022-08-02T17:02:59.522Z,0.73
2022-08-02T17:05:38.228Z,0.52
2022-08-02T17:08:19.833Z,0.73
2022-08-02T17:10:48.399Z,0.70
2022-08-02T17:13:16.719Z,0.45
2022-08-02T17:16:01.192Z,0.70
2022-08-02T17:18:37.437Z,0.70
2022-08-02T17:21:11.066Z,0.60
2022-08-02T17:24:06.339Z,0.50
2022-08-02T17:26:30.139Z,0.43
2022-08-02T17:29:15.861Z,0.80
2022-08-02T17:32:05.105Z,0.60
2022-08-02T17:34:34.255Z,0.50
2022-08-02T17:37:05.528Z,0.50
2022-08-02T17:39:43.843Z,0.70
2022-08-02T17:42:20.368Z,0.30
2022-08-02T17:44:52.978Z,0.50
2022-08-02T17:47:21.836Z,0.60
2022-08-02T17:49:50.321Z,0.32
2022-08-02T17:52:51.062Z,0.50
2022-08-02T17:55:14.983Z,0.60
2022-08-02T17:57:55.813Z,0.57
2022-08-02T18:00:31.502Z,0.50
2022-08-02T18:03:06.294Z,0.45
2022-08-02T18:05:40.359Z,0.35
2022-08-02T18:08:24.666Z,0.50
2022-08-02T18:10:55.846Z,0.50
2022-08-02T18:13:24.347Z,0.50
2022-08-02T18:15:57.241Z,0.55
2022-08-02T18:18:29.731Z,0.55
2022-08-02T18:21:15.606Z,0.47
2022-08-02T18:26:43.481Z,0.50
2022-08-02T18:29:12.212Z,0.60
2022-08-02T18:31:51.245Z,0.63
2022-08-02T18:34:23.908Z,0.60
2022-08-02T18:36:52.846Z,0.50
2022-08-02T18:39:23.153Z,0.60
2022-08-02T18:41:55.917Z,0.40
2022-08-02T18:44:24.245Z,0.60
2022-08-02T18:46:55.588Z,0.40
2022-08-02T18:49:25.469Z,0.70
2022-08-02T18:52:01.857Z,0.73
2022-08-02T18:54:34.133Z,0.50
2022-08-02T18:57:04.242Z,0.57
2022-08-02T18:59:52.568Z,0.30
2022-08-02T19:02:20.874Z,0.60
2022-08-02T19:04:53.353Z,0.40
2022-08-02T19:07:22.577Z,0.50
2022-08-02T19:09:51.241Z,0.50
2022-08-02T19:12:28.183Z,0.30
2022-08-02T19:14:59.361Z,0.38
2022-08-02T19:17:53.631Z,0.60
2022-08-02T19:20:19.494Z,0.20
2022-08-02T19:22:50.040Z,0.30
2022-08-02T19:25:27.989Z,0.55
2022-08-02T19:27:57.852Z,0.40
2022-08-02T19:30:27.502Z,0.50
2022-08-02T19:33:00.249Z,0.47
2022-08-02T19:35:36.899Z,0.50
2022-08-02T19:38:25.345Z,0.45
2022-08-02T19:40:54.355Z,0.40
2022-08-02T19:44:26.240Z,0.52
2022-08-02T19:46:16.025Z,0.35
2022-08-02T19:48:46.160Z,0.50
2022-08-02T19:51:15.802Z,0.47
2022-08-02T19:54:04.053Z,0.28
2022-08-02T19:56:32.866Z,0.28
2022-08-02T19:59:13.839Z,0.30
2022-08-02T20:01:48.640Z,0.50
2022-08-02T20:04:23.209Z,0.30
2022-08-02T20:06:52.149Z,0.30
2022-08-02T20:09:22.497Z,0.50
2022-08-02T20:11:54.692Z,0.30
2022-08-02T20:14:27.601Z,0.50
2022-08-02T20:16:56.936Z,0.38
2022-08-02T20:19:29.062Z,0.45
2022-08-02T20:21:59.726Z,0.50
2022-08-02T20:24:29.573Z,0.43
2022-08-02T20:26:59.181Z,0.40
2022-08-02T20:29:44.701Z,0.35
2022-08-02T20:32:22.474Z,0.50
2022-08-02T20:34:54.732Z,0.40
2022-08-02T20:38:01.242Z,0.40
2022-08-02T20:40:17.272Z,0.20
2022-08-02T20:42:51.092Z,0.40
2022-08-02T20:45:25.150Z,0.30
2022-08-02T20:47:55.551Z,0.40
2022-08-02T20:50:44.784Z,0.40
2022-08-02T20:53:23.870Z,0.52
2022-08-02T20:55:55.331Z,0.43
2022-08-02T20:58:27.762Z,0.43
2022-08-02T21:00:59.768Z,0.30
2022-08-02T21:03:39.165Z,0.40
2022-08-02T21:06:14.891Z,0.50
2022-08-02T21:08:45.902Z,0.60
2022-08-02T21:11:14.750Z,0.40
2022-08-02T21:13:47.426Z,0.40
2022-08-02T21:16:32.867Z,0.50
2022-08-02T21:19:02.284Z,0.50
2022-08-02T21:21:31.887Z,0.50
2022-08-02T21:24:01.552Z,0.30
2022-08-02T21:26:31.269Z,0.30
2022-08-02T21:29:03.563Z,0.30
2022-08-02T21:31:36.441Z,0.70
2022-08-02T21:34:27.494Z,0.50
2022-08-02T21:36:56.275Z,0.35
2022-08-02T21:39:24.754Z,0.38
2022-08-02T21:41:53.132Z,0.40
2022-08-02T21:44:22.741Z,0.38
2022-08-02T21:46:53.379Z,0.32
2022-08-02T21:49:40.613Z,0.57
2022-08-02T21:52:11.204Z,0.38
2022-08-02T21:54:40.991Z,0.40
2022-08-02T21:57:16.143Z,0.43
2022-08-02T21:59:45.723Z,0.60
2022-08-02T22:02:16.374Z,0.28
2022-08-02T22:04:47.575Z,0.38
2022-08-02T22:07:17.699Z,0.50
2022-08-02T22:09:52.455Z,0.33
2022-08-02T22:12:21.873Z,0.38
2022-08-02T22:14:55.689Z,0.32
2022-08-02T22:17:51.383Z,0.40
2022-08-02T22:20:19.851Z,0.43
2022-08-02T22:22:50.781Z,0.40
2022-08-02T22:25:31.057Z,0.30
2022-08-02T22:28:34.962Z,0.50
2022-08-02T22:30:54.538Z,0.30
2022-08-02T22:33:46.667Z,0.38
2022-08-02T22:36:28.424Z,0.30
2022-08-02T22:38:57.039Z,0.30
2022-08-02T22:41:25.336Z,0.50
2022-08-02T22:44:13.651Z,0.22
2022-08-02T22:46:43.212Z,0.70
2022-08-02T22:49:17.643Z,0.40
2022-08-02T22:52:01.138Z,0.40
2022-08-02T22:54:30.615Z,0.47
2022-08-02T22:57:00.363Z,0.65
2022-08-02T22:58:57.558Z,0.60
2022-08-02T22:59:39.205Z,0.43
2022-08-02T23:02:08.432Z,0.38
2022-08-02T23:04:38.102Z,0.30
2022-08-02T23:07:06.450Z,0.32
2022-08-02T23:09:34.750Z,0.40
2022-08-02T23:12:03.092Z,0.40
2022-08-02T23:14:31.486Z,0.32
2022-08-02T23:17:17.523Z,0.50
2022-08-02T23:19:53.322Z,0.30
2022-08-02T23:22:30.107Z,0.38
2022-08-02T23:25:00.812Z,0.30
2022-08-02T23:27:29.141Z,0.40
2022-08-02T23:29:57.473Z,0.70
2022-08-02T23:32:26.161Z,0.40
2022-08-02T23:34:56.019Z,0.50
2022-08-02T23:37:24.462Z,0.47
2022-08-02T23:39:53.002Z,0.40
2022-08-02T23:42:23.180Z,0.30
2022-08-02T23:44:51.499Z,0.52
2022-08-02T23:47:19.849Z,0.25
2022-08-02T23:49:48.229Z,0.50
2022-08-02T23:52:18.405Z,0.30
2022-08-02T23:54:46.978Z,0.55
2022-08-02T23:57:20.882Z,0.38
2022-08-02T23:59:51.158Z,0.50
